Time;durP1;ratioP1;P1;durP2;ratioP2;P2;SDS_P1;SDS_P2;PMS_P1;PMS_P2;Temp;Humidity;BMP_temperature;BMP_pressure;BME280_temperature;BME280_humidity;BME280_pressure;Samples;Min_cycle;Max_cycle;Signal;HPM_P1;HPM_P2
2022/05/04 00:01:54;;;;;;;13.65;9.82;;;;;;;;;;5072969;28;20491;-68
2022/05/04 00:04:21;;;;;;;13.23;10.07;;;;;;;;;;5073018;28;20052;-69
2022/05/04 00:06:48;;;;;;;13.10;10.02;;;;;;;;;;5039554;28;20079;-68
2022/05/04 00:09:15;;;;;;;16.40;10.48;;;;;;;;;;5054981;28;20418;-68
2022/05/04 00:11:42;;;;;;;11.85;9.43;;;;;;;;;;5035324;28;20045;-68
2022/05/04 00:14:09;;;;;;;12.40;9.80;;;;;;;;;;5053313;28;20056;-67
2022/05/04 00:16:35;;;;;;;11.70;9.90;;;;;;;;;;5052941;28;20183;-68
2022/05/04 00:19:02;;;;;;;13.38;10.00;;;;;;;;;;5052727;28;20499;-68
2022/05/04 00:21:29;;;;;;;13.40;10.60;;;;;;;;;;5035084;28;20060;-68
2022/05/04 00:23:55;;;;;;;12.07;9.82;;;;;;;;;;5018966;28;20404;-68
2022/05/04 00:26:22;;;;;;;12.18;10.43;;;;;;;;;;5035026;28;20102;-68
2022/05/04 00:28:48;;;;;;;13.63;10.68;;;;;;;;;;5034884;28;20045;-68
2022/05/04 00:31:15;;;;;;;13.85;11.52;;;;;;;;;;5018234;28;20140;-68
2022/05/04 00:33:42;;;;;;;13.05;10.23;;;;;;;;;;5052224;28;20044;-68
2022/05/04 00:36:08;;;;;;;12.55;10.10;;;;;;;;;;5052661;28;20052;-68
2022/05/04 00:38:35;;;;;;;11.70;10.45;;;;;;;;;;5072304;28;20055;-68
2022/05/04 00:41:02;;;;;;;12.70;11.05;;;;;;;;;;5072313;28;20052;-68
2022/05/04 00:43:29;;;;;;;11.13;9.93;;;;;;;;;;5072545;28;20041;-68
2022/05/04 00:45:55;;;;;;;13.07;9.88;;;;;;;;;;5054456;28;20048;-67
2022/05/04 00:48:22;;;;;;;14.18;10.75;;;;;;;;;;5072324;28;20131;-69
2022/05/04 00:50:49;;;;;;;14.45;11.20;;;;;;;;;;5055129;28;20446;-68
2022/05/04 00:53:18;;;;;;;13.90;10.70;;;;;;;;;;5051964;28;20049;-68
2022/05/04 00:55:45;;;;;;;11.73;10.50;;;;;;;;;;5018208;28;20102;-68
2022/05/04 01:00:59;;;;;;;12.57;10.63;;;;;;;;;;5036775;28;20053;-68
2022/05/04 01:03:26;;;;;;;13.18;10.52;;;;;;;;;;5052078;28;20079;-67
2022/05/04 01:05:53;;;;;;;12.73;9.95;;;;;;;;;;5052035;28;20211;-68
2022/05/04 01:08:19;;;;;;;10.80;9.65;;;;;;;;;;5051981;28;20499;-67
2022/05/04 01:10:46;;;;;;;13.73;10.68;;;;;;;;;;5033338;28;20096;-68
2022/05/04 01:13:12;;;;;;;12.82;11.23;;;;;;;;;;5034035;28;20419;-68
2022/05/04 01:15:39;;;;;;;13.98;11.45;;;;;;;;;;5034571;28;20049;-68
2022/05/04 01:18:06;;;;;;;16.08;11.65;;;;;;;;;;5034596;28;20447;-68
2022/05/04 01:20:32;;;;;;;13.18;10.30;;;;;;;;;;5034295;28;20049;-68
2022/05/04 01:22:59;;;;;;;15.18;11.55;;;;;;;;;;5051622;28;20060;-69
2022/05/04 01:25:26;;;;;;;12.70;10.43;;;;;;;;;;5051716;28;20106;-67
2022/05/04 01:27:53;;;;;;;11.68;9.80;;;;;;;;;;5054161;28;20095;-69
2022/05/04 01:30:20;;;;;;;13.15;10.13;;;;;;;;;;5053956;28;20106;-68
2022/05/04 01:32:46;;;;;;;12.27;9.80;;;;;;;;;;5053615;28;20045;-68
2022/05/04 01:35:14;;;;;;;12.48;9.10;;;;;;;;;;5037630;28;20048;-68
2022/05/04 01:37:41;;;;;;;13.18;9.82;;;;;;;;;;5054077;28;20056;-68
2022/05/04 01:40:08;;;;;;;14.50;10.27;;;;;;;;;;5071615;28;20048;-68
2022/05/04 01:42:35;;;;;;;14.85;10.60;;;;;;;;;;5053631;28;20052;-68
2022/05/04 01:45:03;;;;;;;13.15;10.90;;;;;;;;;;5053777;28;20534;-68
2022/05/04 01:47:30;;;;;;;11.70;10.38;;;;;;;;;;5028773;28;20053;-68
2022/05/04 01:49:57;;;;;;;14.45;9.82;;;;;;;;;;5050431;28;20053;-68
2022/05/04 01:52:25;;;;;;;13.15;10.25;;;;;;;;;;5051378;28;20052;-68
2022/05/04 01:54:52;;;;;;;11.30;9.80;;;;;;;;;;5051443;28;20426;-68
2022/05/04 01:57:22;;;;;;;13.68;9.85;;;;;;;;;;5050136;28;20098;-68
2022/05/04 01:59:48;;;;;;;12.48;9.38;;;;;;;;;;5051281;28;20049;-68
2022/05/04 02:02:16;;;;;;;10.75;9.45;;;;;;;;;;5051212;28;20136;-68
2022/05/04 02:04:42;;;;;;;11.63;9.80;;;;;;;;;;5050433;28;20163;-68
2022/05/04 02:07:09;;;;;;;12.95;10.32;;;;;;;;;;5051349;28;20045;-68
2022/05/04 02:09:36;;;;;;;11.68;9.95;;;;;;;;;;5035025;28;20095;-68
2022/05/04 02:12:04;;;;;;;12.32;10.20;;;;;;;;;;5033638;28;20106;-68
2022/05/04 02:14:32;;;;;;;11.25;9.90;;;;;;;;;;5033391;28;20557;-68
2022/05/04 02:16:59;;;;;;;12.93;9.73;;;;;;;;;;5050441;28;20053;-68
2022/05/04 02:19:26;;;;;;;11.52;10.23;;;;;;;;;;5033870;28;20419;-68
2022/05/04 02:21:53;;;;;;;40.50;23.73;;;;;;;;;;5018050;28;20049;-68
2022/05/04 02:24:20;;;;;;;29.85;17.73;;;;;;;;;;5054962;28;20056;-68
2022/05/04 02:26:47;;;;;;;31.17;18.63;;;;;;;;;;5037383;28;20102;-68
2022/05/04 02:29:13;;;;;;;19.15;13.75;;;;;;;;;;5054871;28;20060;-68
2022/05/04 02:31:40;;;;;;;17.63;12.43;;;;;;;;;;5020610;28;20049;-68
2022/05/04 02:34:07;;;;;;;13.10;10.57;;;;;;;;;;5036923;28;20048;-68
2022/05/04 02:39:18;;;;;;;11.57;9.18;;;;;;;;;;5054563;28;20079;-68
2022/05/04 02:41:48;;;;;;;10.02;9.02;;;;;;;;;;5059032;28;20044;-68
2022/05/04 02:44:15;;;;;;;11.38;9.00;;;;;;;;;;5057332;28;20138;-68
2022/05/04 02:46:42;;;;;;;12.82;9.88;;;;;;;;;;5074267;28;20052;-68
2022/05/04 02:49:09;;;;;;;11.18;9.85;;;;;;;;;;5074338;28;20048;-68
2022/05/04 02:51:35;;;;;;;10.65;8.40;;;;;;;;;;5040479;28;20450;-68
2022/05/04 02:54:03;;;;;;;10.00;8.98;;;;;;;;;;5073922;28;20045;-67
2022/05/04 02:56:30;;;;;;;14.10;9.63;;;;;;;;;;5056737;28;20048;-68
2022/05/04 02:58:56;;;;;;;16.50;9.38;;;;;;;;;;5056433;28;20483;-68
2022/05/04 03:04:08;;;;;;;10.98;9.70;;;;;;;;;;5074395;28;20048;-68
2022/05/04 03:06:36;;;;;;;10.75;9.45;;;;;;;;;;5056319;28;20059;-68
2022/05/04 03:09:03;;;;;;;10.02;8.95;;;;;;;;;;5072462;28;20052;-68
2022/05/04 03:14:17;;;;;;;13.43;11.15;;;;;;;;;;5059039;28;20044;-68
2022/05/04 03:16:44;;;;;;;13.75;10.43;;;;;;;;;;5056729;28;20056;-68
2022/05/04 03:19:11;;;;;;;11.63;10.27;;;;;;;;;;5052380;28;20099;-68
2022/05/04 03:21:37;;;;;;;13.65;10.65;;;;;;;;;;5059068;28;20052;-68
2022/05/04 03:24:05;;;;;;;12.55;10.07;;;;;;;;;;5073858;28;20048;-68
2022/05/04 03:26:31;;;;;;;14.07;10.48;;;;;;;;;;5061242;28;20099;-68
2022/05/04 03:28:58;;;;;;;13.80;10.77;;;;;;;;;;5054396;28;20049;-68
2022/05/04 03:31:25;;;;;;;12.77;10.98;;;;;;;;;;5035896;28;20048;-68
2022/05/04 03:33:51;;;;;;;15.07;11.75;;;;;;;;;;5035362;28;20045;-68
2022/05/04 03:36:18;;;;;;;15.52;11.10;;;;;;;;;;5053702;28;20044;-68
2022/05/04 03:38:45;;;;;;;15.30;12.90;;;;;;;;;;5019672;28;20470;-68
2022/05/04 03:41:12;;;;;;;16.70;11.60;;;;;;;;;;5053199;28;20107;-68
2022/05/04 03:43:38;;;;;;;13.80;11.73;;;;;;;;;;5046716;28;20507;-68
2022/05/04 03:46:18;;;;;;;15.30;11.07;;;;;;;;;;5056158;28;20048;-68
2022/05/04 03:48:47;;;;;;;14.55;11.82;;;;;;;;;;5055598;28;20048;-69
2022/05/04 03:51:16;;;;;;;15.75;11.63;;;;;;;;;;5055745;28;20048;-68
2022/05/04 03:53:42;;;;;;;13.00;11.48;;;;;;;;;;5055604;28;20051;-68
2022/05/04 03:56:09;;;;;;;13.48;10.98;;;;;;;;;;5055373;28;20051;-69
2022/05/04 03:58:37;;;;;;;15.40;11.88;;;;;;;;;;5046935;28;20049;-68
2022/05/04 04:01:04;;;;;;;14.18;11.93;;;;;;;;;;5052998;28;20053;-68
2022/05/04 04:03:36;;;;;;;16.08;12.02;;;;;;;;;;5036078;28;20049;-68
2022/05/04 04:06:03;;;;;;;16.77;12.23;;;;;;;;;;5035220;28;20492;-68
2022/05/04 04:08:30;;;;;;;17.70;12.18;;;;;;;;;;5035573;28;20423;-67
2022/05/04 04:10:57;;;;;;;14.80;11.70;;;;;;;;;;5034936;28;20052;-68
2022/05/04 04:13:24;;;;;;;14.30;11.25;;;;;;;;;;5035243;28;20045;-68
2022/05/04 04:15:51;;;;;;;14.85;11.68;;;;;;;;;;5035155;28;20071;-68
2022/05/04 04:18:19;;;;;;;16.10;11.02;;;;;;;;;;5035380;28;20049;-68
2022/05/04 04:23:32;;;;;;;12.98;11.57;;;;;;;;;;5037807;28;20048;-69
2022/05/04 04:25:59;;;;;;;10.32;8.95;;;;;;;;;;5035343;28;20049;-67
2022/05/04 04:28:26;;;;;;;12.55;9.20;;;;;;;;;;5035130;28;20128;-68
2022/05/04 04:30:53;;;;;;;11.30;9.00;;;;;;;;;;5034708;28;20541;-68
2022/05/04 04:33:25;;;;;;;10.52;9.43;;;;;;;;;;5034535;28;20045;-69
2022/05/04 04:35:52;;;;;;;9.20;8.30;;;;;;;;;;5052388;28;20049;-68
2022/05/04 04:38:19;;;;;;;11.93;8.63;;;;;;;;;;5051475;28;20056;-68
2022/05/04 04:40:46;;;;;;;10.55;9.43;;;;;;;;;;5051917;28;20102;-68
2022/05/04 04:43:14;;;;;;;15.77;11.95;;;;;;;;;;5054398;28;20049;-69
2022/05/04 04:45:44;;;;;;;17.45;14.07;;;;;;;;;;5038146;28;20052;-69
2022/05/04 04:48:12;;;;;;;14.70;12.95;;;;;;;;;;5038610;28;20063;-67
2022/05/04 04:50:38;;;;;;;14.40;12.35;;;;;;;;;;5038122;28;20049;-68
2022/05/04 04:53:05;;;;;;;14.65;12.00;;;;;;;;;;5071831;28;20044;-67
2022/05/04 04:55:31;;;;;;;15.35;11.32;;;;;;;;;;5072118;28;20056;-67
2022/05/04 04:57:58;;;;;;;13.75;11.02;;;;;;;;;;5037894;28;20102;-68
2022/05/04 05:00:25;;;;;;;14.05;11.25;;;;;;;;;;5067149;28;20045;-68
2022/05/04 05:02:51;;;;;;;15.00;11.40;;;;;;;;;;5051945;28;20139;-67
2022/05/04 05:05:18;;;;;;;11.60;10.35;;;;;;;;;;5034320;28;20045;-67
2022/05/04 05:07:45;;;;;;;12.00;10.07;;;;;;;;;;5017981;28;20049;-67
2022/05/04 05:10:11;;;;;;;11.32;9.40;;;;;;;;;;5017961;28;20049;-67
2022/05/04 05:12:38;;;;;;;11.90;10.10;;;;;;;;;;5051651;28;20051;-67
2022/05/04 05:17:50;;;;;;;12.45;9.73;;;;;;;;;;5052197;28;20057;-67
2022/05/04 05:20:18;;;;;;;14.23;10.68;;;;;;;;;;5051999;28;20052;-68
2022/05/04 05:22:44;;;;;;;11.50;10.27;;;;;;;;;;5018394;28;20051;-67
2022/05/04 05:25:11;;;;;;;13.15;10.20;;;;;;;;;;5064957;28;20457;-68
2022/05/04 05:27:37;;;;;;;11.15;10.00;;;;;;;;;;5071678;28;20517;-67
2022/05/04 05:30:05;;;;;;;11.48;10.27;;;;;;;;;;5071944;28;20053;-68
2022/05/04 05:32:31;;;;;;;14.88;10.68;;;;;;;;;;5071874;28;20502;-68
2022/05/04 05:34:58;;;;;;;14.00;10.13;;;;;;;;;;5054158;28;20114;-68
2022/05/04 05:37:25;;;;;;;12.75;10.57;;;;;;;;;;5071672;28;20106;-67
2022/05/04 05:39:51;;;;;;;14.07;9.80;;;;;;;;;;5053834;28;20052;-68
2022/05/04 05:42:19;;;;;;;10.48;8.80;;;;;;;;;;5051979;28;20080;-68
2022/05/04 05:44:46;;;;;;;13.15;9.60;;;;;;;;;;5051658;28;20045;-68
2022/05/04 05:47:13;;;;;;;12.95;9.60;;;;;;;;;;5034009;28;20416;-67
2022/05/04 05:49:39;;;;;;;11.65;10.55;;;;;;;;;;5050485;28;20057;-67
2022/05/04 05:52:08;;;;;;;11.80;10.55;;;;;;;;;;5051372;28;20056;-67
2022/05/04 05:54:35;;;;;;;12.13;10.02;;;;;;;;;;5033650;28;20099;-66
2022/05/04 05:57:01;;;;;;;13.20;9.45;;;;;;;;;;5035244;28;20045;-66
2022/05/04 05:59:28;;;;;;;11.82;9.20;;;;;;;;;;5054507;28;20056;-67
2022/05/04 06:01:55;;;;;;;11.63;9.55;;;;;;;;;;5055193;28;20095;-67
2022/05/04 06:04:22;;;;;;;10.85;9.75;;;;;;;;;;5055316;28;20049;-67
2022/05/04 06:06:48;;;;;;;10.30;8.93;;;;;;;;;;5035573;28;20428;-67
2022/05/04 06:09:15;;;;;;;11.60;8.75;;;;;;;;;;5053040;28;20056;-67
2022/05/04 06:11:41;;;;;;;10.68;8.45;;;;;;;;;;5053236;28;20144;-68
2022/05/04 06:14:08;;;;;;;11.18;9.10;;;;;;;;;;5053033;28;20527;-68
2022/05/04 06:16:35;;;;;;;12.52;8.20;;;;;;;;;;5035444;28;20131;-67
2022/05/04 06:19:01;;;;;;;11.50;8.43;;;;;;;;;;5052445;28;20573;-68
2022/05/04 06:21:28;;;;;;;10.00;8.50;;;;;;;;;;5035067;28;20045;-67
2022/05/04 06:23:55;;;;;;;12.27;8.52;;;;;;;;;;5051838;28;20072;-68
2022/05/04 06:26:23;;;;;;;11.25;8.13;;;;;;;;;;5052767;28;20056;-67
2022/05/04 06:28:49;;;;;;;11.38;8.43;;;;;;;;;;5053110;28;20063;-68
2022/05/04 06:34:06;;;;;;;9.68;7.93;;;;;;;;;;5052085;28;20560;-67
2022/05/04 06:36:34;;;;;;;17.30;8.65;;;;;;;;;;5052803;28;20048;-67
2022/05/04 06:39:01;;;;;;;8.75;7.55;;;;;;;;;;5018851;28;20049;-67
2022/05/04 06:41:27;;;;;;;9.68;7.53;;;;;;;;;;5023411;28;20052;-67
2022/05/04 06:43:54;;;;;;;10.13;6.88;;;;;;;;;;5072710;28;20461;-67
2022/05/04 06:46:21;;;;;;;8.30;7.45;;;;;;;;;;5070626;28;20057;-67
2022/05/04 06:48:48;;;;;;;10.13;7.10;;;;;;;;;;5072784;28;20402;-67
2022/05/04 06:51:14;;;;;;;9.20;7.25;;;;;;;;;;5072296;28;20048;-67
2022/05/04 06:53:42;;;;;;;11.55;7.72;;;;;;;;;;5072290;28;20049;-68
2022/05/04 06:56:29;;;;;;;10.00;7.70;;;;;;;;;;5061684;28;20053;-68
2022/05/04 06:58:56;;;;;;;13.00;8.57;;;;;;;;;;5033947;28;20474;-67
2022/05/04 07:01:23;;;;;;;12.30;8.05;;;;;;;;;;5021626;28;20438;-67
2022/05/04 07:03:49;;;;;;;9.50;7.63;;;;;;;;;;5072054;28;20052;-68
2022/05/04 07:06:16;;;;;;;9.05;6.97;;;;;;;;;;5072369;28;20059;-67
2022/05/04 07:08:43;;;;;;;9.70;7.25;;;;;;;;;;5071165;28;20052;-67
2022/05/04 07:11:10;;;;;;;12.95;8.38;;;;;;;;;;5071487;28;20782;-69
2022/05/04 07:13:36;;;;;;;10.48;8.20;;;;;;;;;;5021884;28;20048;-64
2022/05/04 07:16:03;;;;;;;12.18;7.43;;;;;;;;;;5043670;28;20056;-65
2022/05/04 07:18:30;;;;;;;7.50;6.80;;;;;;;;;;5038501;28;20118;-65
2022/05/04 07:20:57;;;;;;;9.50;7.25;;;;;;;;;;5041592;28;20100;-63
2022/05/04 07:23:23;;;;;;;8.73;6.30;;;;;;;;;;5040127;28;20091;-65
2022/05/04 07:25:50;;;;;;;8.25;6.40;;;;;;;;;;5038922;28;20045;-68
2022/05/04 07:28:17;;;;;;;8.98;6.22;;;;;;;;;;5040442;28;20052;-67
2022/05/04 07:30:43;;;;;;;6.68;5.93;;;;;;;;;;5038393;28;20107;-67
2022/05/04 07:33:10;;;;;;;6.90;6.20;;;;;;;;;;5041800;28;20051;-67
2022/05/04 07:35:37;;;;;;;6.72;5.75;;;;;;;;;;5020179;28;20385;-67
2022/05/04 07:38:04;;;;;;;6.85;6.03;;;;;;;;;;5037491;28;20053;-65
2022/05/04 07:43:15;;;;;;;6.90;6.20;;;;;;;;;;5036575;28;20497;-68
2022/05/04 07:45:43;;;;;;;5.70;5.10;;;;;;;;;;5042428;28;20043;-68
2022/05/04 07:48:10;;;;;;;9.75;6.63;;;;;;;;;;5036967;28;20063;-68
2022/05/04 07:50:37;;;;;;;8.55;5.85;;;;;;;;;;5024280;28;20151;-69
2022/05/04 07:53:04;;;;;;;8.30;5.95;;;;;;;;;;5040118;28;20049;-68
2022/05/04 07:55:33;;;;;;;8.85;6.85;;;;;;;;;;5037038;28;20045;-67
2022/05/04 07:58:00;;;;;;;6.78;6.18;;;;;;;;;;5037921;28;20523;-67
2022/05/04 08:05:58;;;;;;;7.70;6.90;;;;;;;;;;5023340;28;20136;-67
2022/05/04 08:08:24;;;;;;;8.93;7.00;;;;;;;;;;5038947;28;20080;-68
2022/05/04 08:10:51;;;;;;;8.80;6.68;;;;;;;;;;5037886;28;20126;-68
2022/05/04 08:13:19;;;;;;;7.72;6.18;;;;;;;;;;5005792;28;20099;-68
2022/05/04 08:15:46;;;;;;;8.98;7.38;;;;;;;;;;5010211;28;20045;-68
2022/05/04 08:18:13;;;;;;;8.18;7.38;;;;;;;;;;5028831;28;20289;-68
2022/05/04 08:20:40;;;;;;;9.75;7.25;;;;;;;;;;5022571;28;20045;-68
2022/05/04 08:23:07;;;;;;;10.32;7.80;;;;;;;;;;5020038;28;20045;-68
2022/05/04 08:25:34;;;;;;;11.23;8.00;;;;;;;;;;5025995;28;20045;-68
2022/05/04 08:28:00;;;;;;;11.30;7.72;;;;;;;;;;5043431;28;20049;-68
2022/05/04 08:30:27;;;;;;;8.93;7.68;;;;;;;;;;5021501;28;20046;-68
2022/05/04 08:32:54;;;;;;;12.38;7.38;;;;;;;;;;5006023;28;20053;-68
2022/05/04 08:35:21;;;;;;;10.57;7.63;;;;;;;;;;5021464;28;20405;-67
2022/05/04 08:37:48;;;;;;;9.85;7.50;;;;;;;;;;5023580;28;20516;-68
2022/05/04 08:40:14;;;;;;;10.20;8.05;;;;;;;;;;5021489;28;20049;-67
2022/05/04 08:42:43;;;;;;;11.32;7.32;;;;;;;;;;5039634;28;20049;-68
2022/05/04 08:45:11;;;;;;;9.07;7.97;;;;;;;;;;5020222;28;20049;-68
2022/05/04 08:47:39;;;;;;;9.48;8.45;;;;;;;;;;5038570;28;20060;-68
2022/05/04 08:50:14;;;;;;;12.67;8.30;;;;;;;;;;5036524;28;20053;-68
2022/05/04 08:52:51;;;;;;;12.07;8.18;;;;;;;;;;5005959;28;20049;-69
2022/05/04 08:55:18;;;;;;;15.43;9.10;;;;;;;;;;5021270;28;20048;-68
2022/05/04 08:57:44;;;;;;;12.65;8.18;;;;;;;;;;5007592;28;20049;-65
2022/05/04 09:00:12;;;;;;;12.52;8.43;;;;;;;;;;5021297;28;20483;-68
2022/05/04 09:02:38;;;;;;;11.55;8.32;;;;;;;;;;5018029;28;20049;-67
2022/05/04 09:05:33;;;;;;;13.75;8.52;;;;;;;;;;5036560;28;20049;-68
2022/05/04 09:07:59;;;;;;;14.13;8.90;;;;;;;;;;5018734;28;20049;-68
2022/05/04 09:10:28;;;;;;;11.60;8.30;;;;;;;;;;5007199;28;20099;-68
2022/05/04 09:12:59;;;;;;;11.00;8.82;;;;;;;;;;5005950;28;20056;-67
2022/05/04 09:15:27;;;;;;;12.40;9.38;;;;;;;;;;5036270;28;20063;-68
2022/05/04 09:18:05;;;;;;;12.55;9.40;;;;;;;;;;5034033;28;20053;-68
2022/05/04 09:20:47;;;;;;;12.32;9.60;;;;;;;;;;5008484;28;20412;-68
2022/05/04 09:23:21;;;;;;;11.95;10.30;;;;;;;;;;5039243;28;20119;-68
2022/05/04 09:25:52;;;;;;;11.73;10.35;;;;;;;;;;5021108;28;20064;-68
2022/05/04 09:28:20;;;;;;;13.90;10.38;;;;;;;;;;5021085;28;20053;-68
2022/05/04 09:30:51;;;;;;;11.75;10.30;;;;;;;;;;5019620;28;20056;-68
2022/05/04 09:33:23;;;;;;;13.27;9.95;;;;;;;;;;5016481;28;20057;-68
2022/05/04 09:35:50;;;;;;;11.03;9.47;;;;;;;;;;5020887;28;20045;-69
2022/05/04 09:46:45;;;;;;;12.35;10.02;;;;;;;;;;5030969;28;20046;-67
2022/05/04 09:49:19;;;;;;;11.93;10.57;;;;;;;;;;5034486;28;20393;-69
2022/05/04 09:51:53;;;;;;;14.40;10.85;;;;;;;;;;5010940;28;20049;-65
2022/05/04 09:54:21;;;;;;;12.45;11.18;;;;;;;;;;5029172;28;20797;-67
2022/05/04 09:56:56;;;;;;;12.25;10.43;;;;;;;;;;5025160;28;20059;-65
2022/05/04 09:59:29;;;;;;;12.77;10.45;;;;;;;;;;5024927;28;20102;-65
2022/05/04 10:01:59;;;;;;;18.13;12.35;;;;;;;;;;5043681;28;20053;-66
2022/05/04 10:04:27;;;;;;;16.65;11.88;;;;;;;;;;5026744;28;20077;-65
2022/05/04 10:07:04;;;;;;;16.23;11.75;;;;;;;;;;5037217;28;20788;-67
2022/05/04 10:09:32;;;;;;;17.50;12.35;;;;;;;;;;5021111;28;20088;-65
2022/05/04 10:11:59;;;;;;;15.18;13.45;;;;;;;;;;5040634;28;20045;-67
2022/05/04 10:14:27;;;;;;;14.38;12.88;;;;;;;;;;5013043;28;20627;-68
2022/05/04 10:17:11;;;;;;;16.30;13.38;;;;;;;;;;5004104;28;20049;-67
2022/05/04 10:19:55;;;;;;;16.40;14.65;;;;;;;;;;5033329;28;20749;-70
2022/05/04 10:22:30;;;;;;;15.70;14.02;;;;;;;;;;5023639;28;20052;-71
2022/05/04 10:24:58;;;;;;;13.93;12.55;;;;;;;;;;5004567;28;20041;-67
2022/05/04 10:27:27;;;;;;;16.70;13.43;;;;;;;;;;5004544;28;20496;-67
2022/05/04 10:32:51;;;;;;;13.90;10.85;;;;;;;;;;5009939;28;20053;-67
2022/05/04 10:35:28;;;;;;;12.55;11.32;;;;;;;;;;5003291;28;20489;-66
2022/05/04 10:37:57;;;;;;;13.43;11.65;;;;;;;;;;5038287;28;20151;-67
2022/05/04 10:40:32;;;;;;;12.40;11.10;;;;;;;;;;5038439;28;20108;-67
2022/05/04 10:42:59;;;;;;;11.73;10.52;;;;;;;;;;5017867;28;20463;-67
2022/05/04 10:45:37;;;;;;;14.95;9.32;;;;;;;;;;5023532;28;20057;-67
2022/05/04 10:48:36;;;;;;;10.38;8.52;;;;;;;;;;5006404;28;20053;-67
2022/05/04 10:51:12;;;;;;;9.90;7.85;;;;;;;;;;4978953;28;20055;-67
2022/05/04 10:53:43;;;;;;;9.90;7.43;;;;;;;;;;5006047;28;20060;-68
2022/05/04 10:56:15;;;;;;;8.20;7.32;;;;;;;;;;5030581;28;20055;-67
2022/05/04 10:58:43;;;;;;;7.87;6.37;;;;;;;;;;5021519;28;20064;-67
2022/05/04 11:01:17;;;;;;;9.82;7.05;;;;;;;;;;5037899;28;20095;-67
2022/05/04 11:03:49;;;;;;;8.95;6.32;;;;;;;;;;5039373;28;20057;-68
2022/05/04 11:06:27;;;;;;;7.68;6.93;;;;;;;;;;5037777;28;20168;-68
2022/05/04 11:08:58;;;;;;;9.32;7.35;;;;;;;;;;5024492;28;20053;-68
2022/05/04 11:11:25;;;;;;;7.18;6.47;;;;;;;;;;5021382;28;20565;-67
2022/05/04 11:13:52;;;;;;;7.85;6.82;;;;;;;;;;5036889;28;20049;-68
2022/05/04 11:16:21;;;;;;;7.50;6.65;;;;;;;;;;5023494;28;20045;-69
2022/05/04 11:18:47;;;;;;;7.80;5.93;;;;;;;;;;5019583;28;20045;-68
2022/05/04 11:24:02;;;;;;;6.95;6.25;;;;;;;;;;4961348;28;20070;-70
2022/05/04 11:26:55;;;;;;;7.30;6.60;;;;;;;;;;4978839;28;20062;-71
2022/05/04 11:29:24;;;;;;;7.47;5.63;;;;;;;;;;4962429;28;20473;-70
2022/05/04 11:31:57;;;;;;;9.20;8.05;;;;;;;;;;4987893;28;20055;-66
2022/05/04 11:34:25;;;;;;;7.55;6.78;;;;;;;;;;4961224;28;20063;-71
2022/05/04 11:36:53;;;;;;;6.32;5.40;;;;;;;;;;4965312;28;20114;-67
2022/05/04 11:39:22;;;;;;;6.05;5.45;;;;;;;;;;4961546;28;20056;-67
2022/05/04 11:41:50;;;;;;;6.07;5.28;;;;;;;;;;4961051;28;20114;-67
2022/05/04 11:44:21;;;;;;;8.40;5.65;;;;;;;;;;4961955;28;20051;-67
2022/05/04 11:46:53;;;;;;;6.63;6.03;;;;;;;;;;4959878;28;20145;-67
2022/05/04 11:49:22;;;;;;;4.65;4.22;;;;;;;;;;4964531;28;20501;-68
2022/05/04 11:51:49;;;;;;;4.18;3.38;;;;;;;;;;4960306;28;20078;-67
2022/05/04 11:54:16;;;;;;;5.38;4.85;;;;;;;;;;4966521;28;20050;-67
2022/05/04 11:56:43;;;;;;;5.45;4.95;;;;;;;;;;4963874;28;20133;-71
2022/05/04 11:59:10;;;;;;;5.13;4.30;;;;;;;;;;4961387;28;20134;-68
2022/05/04 12:01:38;;;;;;;4.30;3.90;;;;;;;;;;4961418;28;20051;-69
2022/05/04 12:04:05;;;;;;;5.72;4.55;;;;;;;;;;4959434;28;20054;-68
2022/05/04 12:06:33;;;;;;;5.57;4.88;;;;;;;;;;4986837;28;20051;-73
2022/05/04 12:09:00;;;;;;;5.50;5.00;;;;;;;;;;4974000;28;20094;-72
2022/05/04 12:11:31;;;;;;;5.05;4.60;;;;;;;;;;4970660;28;20718;-72
2022/05/04 12:13:59;;;;;;;4.30;3.90;;;;;;;;;;4963860;28;20054;-72
2022/05/04 12:16:26;;;;;;;4.88;4.43;;;;;;;;;;4961618;28;20125;-72
2022/05/04 12:18:53;;;;;;;7.80;5.20;;;;;;;;;;4980869;28;20056;-72
2022/05/04 12:21:20;;;;;;;7.82;5.68;;;;;;;;;;4983740;28;20051;-72
2022/05/04 12:23:52;;;;;;;6.20;4.82;;;;;;;;;;4961612;28;20058;-72
2022/05/04 12:26:19;;;;;;;5.10;4.60;;;;;;;;;;4959659;28;20054;-72
2022/05/04 12:33:08;;;;;;;6.80;3.92;;;;;;;;;;4961743;28;20446;-72
2022/05/04 12:34:30;;;;;;;3.97;3.38;;;;;;;;;;4965861;28;20119;-72
2022/05/04 12:36:59;;;;;;;3.83;3.35;;;;;;;;;;4955161;28;20486;-72
2022/05/04 12:39:27;;;;;;;3.53;3.22;;;;;;;;;;4960306;28;20075;-72
2022/05/04 12:41:58;;;;;;;6.15;3.60;;;;;;;;;;4961369;28;20054;-72
2022/05/04 12:44:25;;;;;;;3.00;2.70;;;;;;;;;;4961182;28;20493;-72
2022/05/04 12:46:53;;;;;;;3.42;3.13;;;;;;;;;;4959748;28;20047;-72
2022/05/04 12:49:23;;;;;;;2.65;2.45;;;;;;;;;;4976201;28;20053;-72
2022/05/04 12:51:54;;;;;;;3.25;2.63;;;;;;;;;;5093346;22;20016;-72
2022/05/04 12:54:21;;;;;;;2.60;2.28;;;;;;;;;;5041004;28;20049;-72
2022/05/04 12:56:50;;;;;;;2.60;1.90;;;;;;;;;;5039189;28;20041;-71
2022/05/04 12:59:18;;;;;;;3.17;2.88;;;;;;;;;;5037597;28;20053;-72
2022/05/04 13:01:45;;;;;;;2.50;2.30;;;;;;;;;;5034629;28;20048;-72
2022/05/04 13:04:17;;;;;;;2.83;2.40;;;;;;;;;;5060362;28;20045;-72
2022/05/04 13:06:44;;;;;;;4.28;2.30;;;;;;;;;;5064426;28;20055;-72
2022/05/04 13:09:11;;;;;;;2.53;2.00;;;;;;;;;;5060922;28;20060;-72
2022/05/04 13:11:39;;;;;;;2.03;1.80;;;;;;;;;;5060397;28;20056;-72
2022/05/04 13:14:06;;;;;;;2.97;2.10;;;;;;;;;;5039674;28;20099;-72
2022/05/04 13:16:33;;;;;;;3.45;2.58;;;;;;;;;;5046047;28;20040;-72
2022/05/04 13:19:00;;;;;;;2.08;1.60;;;;;;;;;;5060011;28;20483;-72
2022/05/04 13:21:28;;;;;;;2.63;2.00;;;;;;;;;;5057705;28;20049;-73
2022/05/04 13:24:00;;;;;;;4.97;2.78;;;;;;;;;;5051840;28;20053;-73
2022/05/04 13:26:27;;;;;;;3.38;2.08;;;;;;;;;;5057094;28;20060;-73
2022/05/04 13:28:55;;;;;;;3.70;2.75;;;;;;;;;;5061114;28;20470;-73
2022/05/04 13:31:23;;;;;;;2.92;2.63;;;;;;;;;;5056591;28;20520;-73
2022/05/04 13:33:50;;;;;;;5.20;2.88;;;;;;;;;;5041111;28;20048;-73
2022/05/04 13:36:16;;;;;;;3.20;2.88;;;;;;;;;;5056896;28;20098;-73
2022/05/04 13:38:43;;;;;;;5.53;2.75;;;;;;;;;;5060027;28;20498;-73
2022/05/04 13:41:10;;;;;;;7.03;5.13;;;;;;;;;;5057983;28;20071;-73
2022/05/04 13:43:36;;;;;;;8.05;6.50;;;;;;;;;;5059931;28;20140;-73
2022/05/04 13:46:03;;;;;;;3.97;2.67;;;;;;;;;;5057796;28;20048;-73
2022/05/04 13:48:30;;;;;;;2.83;2.28;;;;;;;;;;5057789;28;20045;-72
2022/05/04 13:53:42;;;;;;;2.78;2.15;;;;;;;;;;5040440;28;20055;-73
2022/05/04 13:56:09;;;;;;;2.78;2.33;;;;;;;;;;5066340;28;20041;-73
2022/05/04 13:58:36;;;;;;;2.58;2.17;;;;;;;;;;5059043;28;21227;-72
2022/05/04 14:01:03;;;;;;;3.25;2.97;;;;;;;;;;5041191;28;20045;-74
2022/05/04 14:03:30;;;;;;;5.57;3.10;;;;;;;;;;5057754;28;20055;-72
2022/05/04 14:05:57;;;;;;;2.72;2.50;;;;;;;;;;5039642;28;20053;-71
2022/05/04 14:08:23;;;;;;;3.92;2.70;;;;;;;;;;5050501;28;20041;-73
2022/05/04 14:10:50;;;;;;;4.32;2.65;;;;;;;;;;5058439;28;20048;-75
2022/05/04 14:13:24;;;;;;;5.72;2.83;;;;;;;;;;5052330;28;20070;-76
2022/05/04 14:15:58;;;;;;;5.10;2.13;;;;;;;;;;5042184;28;20053;-78
2022/05/04 14:18:31;;;;;;;2.42;2.03;;;;;;;;;;5038706;28;20049;-75
2022/05/04 14:20:59;;;;;;;;;;;;;;;;;;5012200;28;20388;-71
2022/05/04 14:23:26;;;;;;;3.53;2.35;;;;;;;;;;5063683;28;19951;-70
2022/05/04 14:25:53;;;;;;;2.63;2.30;;;;;;;;;;5062943;28;20106;-72
2022/05/04 14:28:20;;;;;;;4.57;2.45;;;;;;;;;;5060582;28;20087;-74
2022/05/04 14:30:47;;;;;;;3.60;1.90;;;;;;;;;;5062430;28;20075;-77
2022/05/04 14:33:14;;;;;;;3.42;2.08;;;;;;;;;;5036145;28;20056;-74
2022/05/04 14:35:40;;;;;;;5.13;2.10;;;;;;;;;;5064018;28;20400;-76
2022/05/04 14:38:08;;;;;;;2.22;2.00;;;;;;;;;;5060075;28;20107;-74
2022/05/04 14:40:34;;;;;;;3.22;2.30;;;;;;;;;;5068533;28;20052;-68
2022/05/04 14:43:01;;;;;;;3.70;2.45;;;;;;;;;;5072717;28;20049;-70
2022/05/04 14:45:37;;;;;;;2.88;2.60;;;;;;;;;;5080183;28;20033;-74
2022/05/04 14:48:05;;;;;;;3.97;2.65;;;;;;;;;;5048857;28;20052;-71
2022/05/04 14:50:31;;;;;;;5.28;2.47;;;;;;;;;;5085421;28;20054;-73
2022/05/04 14:52:58;;;;;;;4.53;2.67;;;;;;;;;;5086928;28;20052;-71
2022/05/04 14:55:25;;;;;;;4.63;2.65;;;;;;;;;;5074314;28;20140;-71
2022/05/04 14:57:51;;;;;;;6.40;2.60;;;;;;;;;;5061388;28;20060;-73
2022/05/04 15:00:19;;;;;;;5.07;2.42;;;;;;;;;;5058868;28;20215;-74
2022/05/04 15:05:33;;;;;;;4.32;2.30;;;;;;;;;;5064179;28;20053;-74
2022/05/04 15:08:00;;;;;;;5.30;2.60;;;;;;;;;;5062782;28;20483;-73
2022/05/04 15:10:27;;;;;;;5.05;2.22;;;;;;;;;;5061165;28;20056;-71
2022/05/04 15:12:54;;;;;;;2.35;2.00;;;;;;;;;;5059766;28;20127;-74
2022/05/04 15:15:22;;;;;;;6.03;2.28;;;;;;;;;;5031662;28;20061;-77
2022/05/04 15:17:51;;;;;;;2.88;2.60;;;;;;;;;;5062890;28;20058;-73
2022/05/04 15:20:18;;;;;;;5.20;2.10;;;;;;;;;;5047328;28;20071;-71
2022/05/04 15:22:45;;;;;;;6.68;2.50;;;;;;;;;;5060900;28;20608;-69
2022/05/04 15:25:12;;;;;;;5.55;2.50;;;;;;;;;;5060265;28;20102;-69
2022/05/04 15:27:39;;;;;;;3.92;2.33;;;;;;;;;;5058333;28;20041;-70